Time;durP1;ratioP1;P1;durP2;ratioP2;P2;SDS_P1;SDS_P2;PMS_P1;PMS_P2;Temp;Humidity;BMP_temperature;BMP_pressure;BME280_temperature;BME280_humidity;BME280_pressure;Samples;Min_cycle;Max_cycle;Signal;HPM_P1;HPM_P2
2023/04/14 04:40:40;;;;;;;16.60;10.20;;;;;;;9.18;100.00;99293.24;106271;1270;22550;-42
2023/04/14 04:43:28;;;;;;;17.60;9.80;;;;;;;9.17;100.00;99296.39;109542;1281;22904;-44
2023/04/14 04:45:57;;;;;;;16.10;9.80;;;;;;;9.18;100.00;99299.51;109662;1283;22486;-47
2023/04/14 04:48:26;;;;;;;16.90;11.60;;;;;;;9.18;100.00;99299.34;107390;1283;24255;-46
2023/04/14 04:50:54;;;;;;;15.30;10.20;;;;;;;9.18;100.00;99300.38;107288;1274;22537;-42
2023/04/14 04:53:23;;;;;;;16.30;9.60;;;;;;;9.17;100.00;99298.31;107504;1283;23243;-47
2023/04/14 04:55:56;;;;;;;17.00;10.20;;;;;;;9.17;100.00;99296.92;107767;1276;24366;-47
2023/04/14 04:58:25;;;;;;;18.50;10.50;;;;;;;9.16;100.00;99299.02;107218;1276;22515;-41
2023/04/14 05:00:53;;;;;;;15.10;10.60;;;;;;;9.14;100.00;99296.41;108191;1283;26556;-42
2023/04/14 05:03:24;;;;;;;17.90;10.20;;;;;;;9.12;100.00;99295.57;107601;1283;24221;-47
2023/04/14 05:05:53;;;;;;;19.90;11.50;;;;;;;9.09;100.00;99293.86;107773;1283;22516;-43
2023/04/14 05:08:22;;;;;;;17.90;10.60;;;;;;;9.05;100.00;99293.55;109648;1278;22430;-47
2023/04/14 05:10:51;;;;;;;16.50;10.60;;;;;;;9.03;100.00;99300.16;109734;1278;24132;-47
2023/04/14 05:13:21;;;;;;;15.40;9.50;;;;;;;9.04;100.00;99308.17;109440;1277;22852;-44
2023/04/14 05:15:50;;;;;;;14.50;9.60;;;;;;;9.05;100.00;99313.20;109472;1278;22397;-47
2023/04/14 05:18:20;;;;;;;12.30;9.60;;;;;;;9.07;100.00;99316.33;109233;1281;22502;-44
2023/04/14 05:20:50;;;;;;;16.20;10.00;;;;;;;9.09;100.00;99314.72;109449;1277;23318;-48
2023/04/14 05:23:18;;;;;;;18.60;12.60;;;;;;;9.11;100.00;99320.45;109339;1278;24842;-42
2023/04/14 05:29:54;;;;;;;18.20;11.40;;;;;;;9.13;100.00;99330.71;109537;1277;23292;-47
2023/04/14 05:32:29;;;;;;;15.90;10.50;;;;;;;9.12;100.00;99329.15;109479;1281;22385;-47
2023/04/14 05:35:09;;;;;;;21.60;11.30;;;;;;;9.12;100.00;99327.59;109301;1278;22490;-47
2023/04/14 05:37:45;;;;;;;14.70;10.30;;;;;;;9.15;100.00;99332.23;109046;1278;22858;-41
2023/04/14 05:40:21;;;;;;;17.10;11.40;;;;;;;9.18;100.00;99337.09;108509;1278;25322;-43
2023/04/14 05:42:49;;;;;;;15.60;11.10;;;;;;;9.21;100.00;99341.23;108815;1279;22397;-44
2023/04/14 05:45:29;;;;;;;18.40;11.10;;;;;;;9.25;100.00;99339.27;108465;1277;22428;-47
2023/04/14 05:48:07;;;;;;;19.20;11.50;;;;;;;9.29;100.00;99338.54;108587;1277;22406;-42
2023/04/14 05:50:37;;;;;;;20.00;10.50;;;;;;;9.34;100.00;99340.42;108858;1282;23311;-43
2023/04/14 05:53:05;;;;;;;15.60;10.50;;;;;;;9.36;100.00;99339.19;109377;1278;22372;-48
2023/04/14 05:55:35;;;;;;;12.90;9.80;;;;;;;9.36;100.00;99342.48;109214;1278;23014;-48
2023/04/14 05:58:04;;;;;;;14.20;9.10;;;;;;;9.36;100.00;99349.09;108996;1276;22302;-44
2023/04/14 06:00:37;;;;;;;18.20;8.60;;;;;;;9.37;100.00;99352.21;108725;1278;22427;-47
2023/04/14 06:03:25;;;;;;;16.20;8.90;;;;;;;9.36;100.00;99356.92;109169;1276;22583;-44
2023/04/14 06:05:54;;;;;;;13.60;8.70;;;;;;;9.36;100.00;99357.97;109354;1278;22440;-47
2023/04/14 06:08:30;;;;;;;14.50;8.30;;;;;;;9.38;100.00;99359.86;108663;1278;23151;-48
2023/04/14 06:11:31;;;;;;;11.50;7.90;;;;;;;9.39;100.00;99364.36;108746;1278;22560;-43
2023/04/14 06:14:17;;;;;;;10.80;8.00;;;;;;;9.41;100.00;99367.67;108824;1278;22853;-43
2023/04/14 06:17:12;;;;;;;11.80;7.10;;;;;;;9.44;100.00;99374.06;108472;1277;22927;-47
2023/04/14 06:20:38;;;;;;;11.10;7.20;;;;;;;9.46;100.00;99374.77;108255;1278;22430;-47
2023/04/14 06:23:31;;;;;;;13.90;6.80;;;;;;;9.48;100.00;99379.61;109080;1278;23264;-47
2023/04/14 06:29:57;;;;;;;10.60;7.90;;;;;;;9.58;100.00;99384.20;108817;1263;24261;-47
2023/04/14 06:32:43;;;;;;;17.10;7.20;;;;;;;9.60;100.00;99379.11;109051;1277;22269;-47
2023/04/14 06:35:22;;;;;;;9.40;6.30;;;;;;;9.64;100.00;99375.61;109146;1278;22539;-47
2023/04/14 06:38:20;;;;;;;9.50;6.20;;;;;;;9.70;100.00;99379.38;109227;1278;22454;-43
2023/04/14 06:40:48;;;;;;;10.20;5.90;;;;;;;9.72;100.00;99382.83;108726;1278;23519;-49
2023/04/14 06:43:20;;;;;;;9.80;6.60;;;;;;;9.75;100.00;99381.59;108744;1281;22455;-47
2023/04/14 06:45:56;;;;;;;8.40;6.20;;;;;;;9.77;100.00;99378.59;108587;1278;22529;-42
2023/04/14 06:48:57;;;;;;;15.80;6.30;;;;;;;9.81;100.00;99376.13;108398;1278;23375;-48
2023/04/14 06:52:06;;;;;;;16.70;6.30;;;;;;;9.83;100.00;99377.99;108307;1277;22607;-44
2023/04/14 06:56:08;;;;;;;7.70;5.00;;;;;;;9.96;100.00;99378.21;108161;1278;22574;-44
2023/04/14 07:03:18;;;;;;;9.50;5.30;;;;;;;10.30;100.00;99378.15;108029;1281;22403;-48
2023/04/14 07:06:23;;;;;;;5.00;4.10;;;;;;;10.43;100.00;99381.98;108457;1279;22585;-42
2023/04/14 07:08:56;;;;;;;7.20;4.60;;;;;;;10.50;100.00;99379.78;108689;1279;22559;-48
2023/04/14 07:11:28;;;;;;;6.40;4.70;;;;;;;10.58;100.00;99384.73;108616;1278;24240;-48
2023/04/14 07:14:11;;;;;;;13.20;5.30;;;;;;;10.64;100.00;99388.31;109352;1280;22725;-43
2023/04/14 07:16:39;;;;;;;5.00;4.50;;;;;;;10.62;100.00;99392.52;108790;1283;24304;-47
2023/04/14 07:19:08;;;;;;;7.50;4.90;;;;;;;10.58;100.00;99393.80;109162;1281;23414;-44
2023/04/14 07:21:40;;;;;;;10.30;5.00;;;;;;;10.58;100.00;99389.96;108524;1279;23152;-44
2023/04/14 07:24:12;;;;;;;9.30;5.50;;;;;;;10.61;100.00;99387.30;108007;1284;22772;-46
2023/04/14 07:26:44;;;;;;;7.00;5.10;;;;;;;10.66;100.00;99389.51;108552;1278;23260;-48
2023/04/14 07:29:16;;;;;;;10.30;4.70;;;;;;;10.69;100.00;99391.39;108350;1280;25253;-47
2023/04/14 07:31:51;;;;;;;8.50;5.00;;;;;;;10.71;100.00;99395.35;108903;1278;22944;-43
2023/04/14 07:34:20;;;;;;;5.10;4.50;;;;;;;10.72;100.00;99392.73;109092;1278;22451;-48
2023/04/14 07:37:02;;;;;;;7.90;4.80;;;;;;;10.66;100.00;99390.02;108271;1279;22457;-43
2023/04/14 07:39:54;;;;;;;6.20;5.30;;;;;;;10.61;100.00;99388.88;108717;1278;23015;-48
2023/04/14 07:42:30;;;;;;;9.20;5.20;;;;;;;10.62;100.00;99386.95;109104;1280;22775;-43
2023/04/14 07:45:11;;;;;;;9.00;5.60;;;;;;;10.66;100.00;99389.14;109208;1278;22254;-47
2023/04/14 07:47:51;;;;;;;7.70;5.20;;;;;;;10.74;100.00;99390.44;109546;1278;23154;-47
2023/04/14 07:50:23;;;;;;;7.90;5.10;;;;;;;10.75;100.00;99391.80;109466;1278;23316;-46
2023/04/14 07:52:51;;;;;;;7.70;5.20;;;;;;;10.73;100.00;99395.33;109537;1278;22322;-47
2023/04/14 07:55:19;;;;;;;7.20;5.10;;;;;;;10.69;100.00;99397.48;109493;1281;22372;-47
2023/04/14 07:57:48;;;;;;;6.60;4.80;;;;;;;10.66;100.00;99399.09;109337;1278;22267;-44
2023/04/14 08:00:17;;;;;;;9.10;5.50;;;;;;;10.61;100.00;99401.42;109545;1279;22369;-42
2023/04/14 08:02:48;;;;;;;6.20;4.40;;;;;;;10.56;100.00;99403.08;108918;1278;22587;-49
2023/04/14 08:05:22;;;;;;;7.60;5.30;;;;;;;10.53;100.00;99401.52;108268;1278;22777;-43
2023/04/14 08:08:06;;;;;;;6.10;4.20;;;;;;;10.53;100.00;99399.61;108848;1279;22890;-49
2023/04/14 08:10:46;;;;;;;5.90;4.00;;;;;;;10.56;100.00;99402.38;108573;1278;22311;-43
2023/04/14 08:13:42;;;;;;;5.10;4.00;;;;;;;10.59;100.00;99405.80;107842;1278;22479;-49
2023/04/14 08:16:37;;;;;;;4.50;3.70;;;;;;;10.59;100.00;99413.48;108127;1279;22568;-48
2023/04/14 08:20:00;;;;;;;5.50;3.70;;;;;;;10.60;100.00;99419.92;108379;1282;22819;-48
2023/04/14 08:23:14;;;;;;;8.10;4.10;;;;;;;10.64;100.00;99426.84;108394;1278;22582;-44
2023/04/14 08:30:32;;;;;;;5.70;3.50;;;;;;;10.60;100.00;99433.52;109627;1279;22348;-48
2023/04/14 08:37:40;;;;;;;4.70;3.30;;;;;;;10.40;100.00;99436.77;108907;1278;22897;-44
2023/04/14 08:40:27;;;;;;;4.70;3.40;;;;;;;10.33;100.00;99434.58;109399;1278;22313;-48
2023/04/14 08:43:14;;;;;;;5.60;3.20;;;;;;;10.31;100.00;99440.88;108026;1277;23663;-47
2023/04/14 08:46:07;;;;;;;6.30;3.50;;;;;;;10.31;100.00;99442.27;109068;1278;24273;-47
2023/04/14 08:48:42;;;;;;;6.30;3.50;;;;;;;10.29;100.00;99442.11;109203;1284;22299;-48
2023/04/14 08:51:48;;;;;;;9.00;7.00;;;;;;;10.27;100.00;99447.39;108662;1284;22232;-47
2023/04/14 08:54:55;;;;;;;8.00;4.30;;;;;;;10.27;100.00;99451.92;108588;1279;23624;-43
2023/04/14 08:57:48;;;;;;;5.90;4.00;;;;;;;10.23;100.00;99447.23;108420;1262;22331;-47
2023/04/14 09:00:59;;;;;;;6.60;3.90;;;;;;;10.18;100.00;99450.58;109313;1282;22314;-42
2023/04/14 09:04:38;;;;;;;4.10;3.60;;;;;;;10.14;100.00;99448.20;109259;1283;22897;-50
2023/04/14 09:07:49;;;;;;;4.10;3.50;;;;;;;10.15;100.00;99450.27;109552;1281;22345;-48
2023/04/14 09:10:53;;;;;;;6.60;3.60;;;;;;;10.26;100.00;99453.48;108357;1278;22536;-48
2023/04/14 09:14:27;;;;;;;5.20;4.00;;;;;;;10.40;100.00;99452.63;108764;1276;22619;-42
2023/04/14 09:18:03;;;;;;;5.20;3.70;;;;;;;10.53;100.00;99453.51;107605;1286;22557;-44
2023/04/14 09:20:49;;;;;;;7.80;4.20;;;;;;;10.59;100.00;99456.55;107788;1285;22578;-44
2023/04/14 09:23:48;;;;;;;5.10;3.40;;;;;;;10.68;100.00;99459.58;107374;1284;22664;-45
2023/04/14 09:26:30;;;;;;;5.30;3.40;;;;;;;10.74;100.00;99465.61;107080;1273;22520;-43
2023/04/14 09:29:02;;;;;;;5.60;4.20;;;;;;;10.77;100.00;99469.90;107827;1285;25928;-43
2023/04/14 09:31:38;;;;;;;6.20;3.90;;;;;;;10.74;100.00;99471.70;108216;1291;22470;-42
2023/04/14 09:34:15;;;;;;;5.40;3.70;;;;;;;10.68;100.00;99473.72;109050;1284;22249;-42
2023/04/14 09:37:03;;;;;;;4.30;3.20;;;;;;;10.62;100.00;99478.14;108884;1289;22554;-42
2023/04/14 09:39:35;;;;;;;7.80;5.60;;;;;;;10.62;100.00;99478.85;107985;1289;22371;-48
2023/04/14 09:42:05;;;;;;;5.50;3.80;;;;;;;10.65;100.00;99478.10;108150;1291;23211;-43
2023/04/14 09:44:33;;;;;;;5.40;3.70;;;;;;;10.70;100.00;99475.09;108404;1284;22736;-43
2023/04/14 09:47:06;;;;;;;5.90;4.20;;;;;;;10.77;100.00;99478.30;108374;1285;22542;-43
2023/04/14 09:50:05;;;;;;;5.50;4.40;;;;;;;10.91;100.00;99480.88;108500;1286;22685;-49
2023/04/14 09:52:38;;;;;;;4.00;3.60;;;;;;;11.15;100.00;99486.80;108548;1284;22471;-48
2023/04/14 09:55:15;;;;;;;3.60;3.10;;;;;;;11.31;100.00;99483.77;109525;1283;23564;-48
2023/04/14 09:57:45;;;;;;;4.60;3.20;;;;;;;11.47;100.00;99478.80;109484;1284;22315;-43
2023/04/14 10:00:14;;;;;;;4.80;3.00;;;;;;;11.65;100.00;99480.95;109370;1283;22831;-43
2023/04/14 10:03:08;;;;;;;3.60;3.00;;;;;;;11.76;99.92;99480.40;109500;1283;22792;-49
2023/04/14 10:05:37;;;;;;;5.80;3.00;;;;;;;11.76;99.59;99487.21;109486;1278;22384;-43
2023/04/14 10:08:06;;;;;;;4.70;3.80;;;;;;;11.67;98.79;99490.16;109341;1277;23446;-48
2023/04/14 10:10:34;;;;;;;8.20;4.10;;;;;;;11.48;98.35;99497.48;109355;1284;22550;-48
